^^
Grace C. Lehan Memorial Weather Station Historical Data
Daily Summary for January 7, 2022 Units:  English    Metric   Both
Daily Weekly Monthly Yearly
  High: Low: Average:
Temperature: 58.2 °F 54.4 °F 56.8 °F
Dew Point: 57.4 °F 51.1 °F 55.8 °F
Humidity: 97% 87% 96%
Wind Speed: 10.6mph 0mph 0.6mph
Wind Gust: 17mph - -
Wind- - South
Pressure: 30.24 in 30.00 in -
Precipitation: 0.96 in    
 
 
Tabular Data for January 7, 2022
Time Temperature Dew Point Pressure Wind Wind Speed Wind Gust Humidity Rainfall Rate (Hourly) solar
00:04 54.4 °F 53 °F 30.24 in SSE 0.1 mph 3 mph 95% 0.08 in 0 W/m2
00:09 54.4 °F 53 °F 30.24 in SSE 0.1 mph 2 mph 95% 0.07 in 0 W/m2
00:14 54.4 °F 53 °F 30.24 in SSE 0.3 mph 4 mph 95% 0.07 in 0 W/m2
00:19 54.5 °F 53.1 °F 30.24 in SSE 0.2 mph 4 mph 95% 0.08 in 0 W/m2
00:24 54.5 °F 53.1 °F 30.24 in SSE 0.4 mph 4 mph 95% 0.10 in 0 W/m2
00:29 54.5 °F 53.1 °F 30.24 in SSE 0.3 mph 4 mph 95% 0.11 in 0 W/m2
00:34 54.5 °F 53.1 °F 30.24 in SSE 0.5 mph 4 mph 95% 0.13 in 0 W/m2
00:39 54.6 °F 53.2 °F 30.23 in SSE 0.1 mph 4 mph 95% 0.14 in 0 W/m2
00:44 54.6 °F 53.2 °F 30.23 in SSE 0.4 mph 4 mph 95% 0.16 in 0 W/m2
00:49 54.6 °F 53.2 °F 30.23 in SSE 0.4 mph 4 mph 95% 0.18 in 0 W/m2
00:54 54.6 °F 53.2 °F 30.23 in SSE 0.8 mph 5 mph 95% 0.20 in 0 W/m2
00:59 54.6 °F 53.2 °F 30.23 in South 0.1 mph 5 mph 95% 0.21 in 0 W/m2
01:04 54.6 °F 53.2 °F 30.23 in SSE 0.7 mph 6 mph 95% 0.21 in 0 W/m2
01:09 54.6 °F 53.2 °F 30.23 in SSE 0.6 mph 6 mph 95% 0.19 in 0 W/m2
01:14 54.6 °F 53.2 °F 30.22 in SSE 0.8 mph 6 mph 95% 0.21 in 0 W/m2
01:19 54.6 °F 53.2 °F 30.22 in SSE 0.8 mph 6 mph 95% 0.23 in 0 W/m2
01:24 54.7 °F 53.3 °F 30.22 in SSE 0.2 mph 6 mph 95% 0.25 in 0 W/m2
01:29 54.7 °F 53.6 °F 30.22 in SSE 0.8 mph 6 mph 96% 0.27 in 0 W/m2
01:34 54.7 °F 53.6 °F 30.22 in SSE 0.9 mph 6 mph 96% 0.27 in 0 W/m2
01:39 54.8 °F 53.6 °F 30.22 in SSE 1.4 mph 4 mph 96% 0.22 in 0 W/m2
01:44 54.8 °F 53.7 °F 30.22 in SSE 1.7 mph 7 mph 96% 0.23 in 0 W/m2
01:49 54.8 °F 53.7 °F 30.22 in SSE 0.6 mph 7 mph 96% 0.24 in 0 W/m2
01:54 54.8 °F 53.7 °F 30.22 in SSE 1.4 mph 7 mph 96% 0.25 in 0 W/m2
01:59 54.9 °F 53.7 °F 30.22 in SSE 1.4 mph 7 mph 96% 0.27 in 0 W/m2
02:04 54.9 °F 53.8 °F 30.22 in SSE 1 mph 7 mph 96% 0.27 in 0 W/m2
02:09 54.9 °F 53.8 °F 30.22 in SSE 0.4 mph 6 mph 96% 0.21 in 0 W/m2
02:14 54.9 °F 53.8 °F 30.22 in SSE 0.6 mph 6 mph 96% 0.21 in 0 W/m2
02:19 54.9 °F 53.8 °F 30.22 in SSE 0.7 mph 6 mph 96% 0.22 in 0 W/m2
02:24 54.9 °F 53.8 °F 30.22 in SSE 0.2 mph 6 mph 96% 0.22 in 0 W/m2
02:29 54.9 °F 53.8 °F 30.22 in SSE 0.5 mph 6 mph 96% 0.23 in 0 W/m2
02:34 54.9 °F 53.8 °F 30.21 in SSE 0.7 mph 6 mph 96% 0.23 in 0 W/m2
02:39 55 °F 53.8 °F 30.21 in SSE 0.2 mph 3 mph 96% 0.16 in 0 W/m2
02:44 55 °F 53.9 °F 30.21 in SSE 0.3 mph 3 mph 96% 0.18 in 0 W/m2
02:49 55 °F 53.9 °F 30.21 in SSE 0.2 mph 3 mph 96% 0.19 in 0 W/m2
02:54 55 °F 53.9 °F 30.20 in SSE 0.2 mph 3 mph 96% 0.21 in 0 W/m2
02:59 55 °F 53.9 °F 30.20 in SSE 0.6 mph 4 mph 96% 0.22 in 0 W/m2
03:04 55 °F 53.9 °F 30.20 in Calm   4 mph 96% 0.22 in 0 W/m2
03:09 55 °F 53.9 °F 30.20 in SSE 0.4 mph 4 mph 96% 0.18 in 0 W/m2
03:14 55.1 °F 54 °F 30.20 in SSE 0.5 mph 4 mph 96% 0.18 in 0 W/m2
03:19 55.1 °F 54 °F 30.20 in SSE 0.3 mph 4 mph 96% 0.19 in 0 W/m2
03:24 55.1 °F 54 °F 30.20 in SE 1 mph 4 mph 96% 0.19 in 0 W/m2
03:29 55.1 °F 54 °F 30.19 in SSE 0.1 mph 4 mph 96% 0.19 in 0 W/m2
03:34 55.2 °F 54.1 °F 30.19 in SSE 0.5 mph 4 mph 96% 0.19 in 0 W/m2
03:39 55.2 °F 54.1 °F 30.19 in Calm   3 mph 96% 0.14 in 0 W/m2
03:44 55.2 °F 54.1 °F 30.19 in SSE 0.4 mph 3 mph 96% 0.14 in 0 W/m2
03:49 55.3 °F 54.1 °F 30.19 in SSE 0.2 mph 3 mph 96% 0.15 in 0 W/m2
03:54 55.3 °F 54.2 °F 30.18 in SSE 0.1 mph 3 mph 96% 0.18 in 0 W/m2
03:58 55.3 °F 54.2 °F 30.18 in SSE 0.3 mph 3 mph 96% 0.19 in 0 W/m2
04:04 55.4 °F 54.5 °F 30.18 in Calm     96.5% 0.21 in 0 W/m2
04:09 55.5 °F 54.4 °F 30.18 in Calm   1 mph 96% 0.22 in 0 W/m2
04:14 55.5 °F 54.4 °F 30.18 in Calm   1 mph 96% 0.23 in 0 W/m2
04:19 55.6 °F 54.5 °F 30.18 in SE 0.4 mph 5 mph 96% 0.24 in 0 W/m2
04:24 55.6 °F 54.5 °F 30.18 in SSE 0.9 mph 7 mph 96% 0.24 in 0 W/m2
04:29 55.7 °F 54.6 °F 30.18 in South 0.6 mph 7 mph 96% 0.25 in 0 W/m2
04:34 55.8 °F 54.7 °F 30.17 in SSE 0.4 mph 7 mph 96% 0.25 in 0 W/m2
04:39 55.8 °F 54.7 °F 30.17 in South 0.9 mph 5 mph 96% 0.15 in 0 W/m2
04:44 55.9 °F 54.8 °F 30.17 in South 1.1 mph 5 mph 96% 0.16 in 0 W/m2
04:49 55.9 °F 54.8 °F 30.17 in South 1.7 mph 6 mph 96% 0.17 in 0 W/m2
04:54 56 °F 54.9 °F 30.17 in South 1.5 mph 6 mph 96% 0.20 in 0 W/m2
04:59 56.1 °F 55 °F 30.17 in South 0.8 mph 6 mph 96% 0.22 in 0 W/m2
05:04 56.2 °F 55.1 °F 30.17 in South 1.2 mph 6 mph 96% 0.22 in 0 W/m2
05:09 56.3 °F 55.4 °F 30.17 in South 1.3 mph 4 mph 96.7% 0.10 in 0 W/m2
05:14 56.4 °F 55.4 °F 30.17 in South 0.4 mph 4 mph 96.6% 0.11 in 0 W/m2
05:19 56.4 °F 55.3 °F 30.17 in South 0.7 mph 4 mph 96% 0.12 in 0 W/m2
05:24 56.4 °F 55.3 °F 30.17 in South 0.3 mph 4 mph 96% 0.14 in 0 W/m2
05:29 56.5 °F 55.4 °F 30.17 in South 0.9 mph 4 mph 96% 0.15 in 0 W/m2
05:34 56.6 °F 55.4 °F 30.17 in South 0.4 mph 4 mph 96% 0.17 in 0 W/m2
05:39 56.6 °F 55.5 °F 30.17 in South 0.8 mph 4 mph 96% 0.18 in 0 W/m2
05:44 56.6 °F 55.5 °F 30.17 in South 0.5 mph 5 mph 96% 0.18 in 0 W/m2
05:49 56.7 °F 55.7 °F 30.17 in South 1.7 mph 5 mph 96.4% 0.19 in 0 W/m2
05:54 56.8 °F 55.9 °F 30.16 in South 0.8 mph 5 mph 97% 0.19 in 0 W/m2
05:59 56.8 °F 56 °F 30.16 in South 1 mph 5 mph 97% 0.20 in 0 W/m2
06:04 56.8 °F 56 °F 30.16 in South 1.3 mph 5 mph 97% 0.20 in 0 W/m2
06:09 56.9 °F 56 °F 30.16 in South 0.5 mph 4 mph 97% 0.10 in 0 W/m2
06:14 56.9 °F 56.1 °F 30.16 in South 1.2 mph 4 mph 97% 0.10 in 0 W/m2
06:19 56.9 °F 56.1 °F 30.16 in South 0.3 mph 4 mph 97% 0.11 in 0 W/m2
06:24 56.9 °F 56.1 °F 30.17 in South 1.5 mph 5 mph 97% 0.11 in 0 W/m2
06:29 56.9 °F 56.1 °F 30.17 in South 0.7 mph 5 mph 97% 0.16 in 0 W/m2
06:34 56.9 °F 56.1 °F 30.17 in South 0.1 mph 5 mph 97% 0.16 in 0 W/m2
06:39 56.9 °F 56.1 °F 30.17 in South 0.6 mph 4 mph 97% 0.12 in 0 W/m2
06:44 56.9 °F 56.1 °F 30.17 in South 0.4 mph 4 mph 97% 0.13 in 0 W/m2
06:49 56.9 °F 56.1 °F 30.17 in South 0.8 mph 5 mph 97% 0.15 in 0 W/m2
06:54 56.9 °F 56.1 °F 30.17 in South 0.9 mph 5 mph 97% 0.16 in 0 W/m2
06:59 56.9 °F 56.1 °F 30.17 in South 0.3 mph 5 mph 97% 0.16 in 0 W/m2
07:04 56.9 °F 56.1 °F 30.17 in South 0.6 mph 5 mph 97% 0.16 in 0 W/m2
07:09 56.9 °F 56.1 °F 30.17 in South 0.4 mph 3 mph 97% 0.12 in 0 W/m2
07:14 56.9 °F 56.1 °F 30.17 in South 0.9 mph 4 mph 97% 0.12 in 0 W/m2
07:19 56.9 °F 56.1 °F 30.17 in South 0.5 mph 4 mph 97% 0.12 in 0 W/m2
07:24 56.9 °F 56.1 °F 30.17 in South 1.1 mph 4 mph 97% 0.12 in 0 W/m2
07:29 56.9 °F 56.1 °F 30.17 in South 0.1 mph 4 mph 97% 0.12 in 0 W/m2
07:34 56.9 °F 56.1 °F 30.17 in South 0.7 mph 4 mph 97% 0.12 in 0 W/m2
07:39 56.9 °F 56.1 °F 30.17 in South 0.6 mph 4 mph 97% 0.06 in 0 W/m2
07:44 57 °F 56.2 °F 30.17 in South 0.4 mph 4 mph 97% 0.06 in 0 W/m2
07:49 57 °F 56.2 °F 30.17 in South 0.3 mph 4 mph 97% 0.06 in 5 W/m2
07:54 57 °F 56.2 °F 30.17 in South 0.4 mph 4 mph 97% 0.06 in 9 W/m2
07:59 57 °F 56.2 °F 30.17 in South 0.2 mph 4 mph 97% 0.06 in 12 W/m2
08:09 57.1 °F 56.3 °F 30.17 in Calm     97% 0.06 in 18 W/m2
08:14 57.1 °F 56.3 °F 30.16 in Calm     97% 0.06 in 25 W/m2
08:19 57.1 °F 56.3 °F 30.17 in Calm     97% 0.06 in 26 W/m2
08:24 57.1 °F 56.3 °F 30.17 in Calm     97% 0.06 in 26 W/m2
08:29 57.2 °F 56.4 °F 30.17 in Calm     97% 0.06 in 40 W/m2
08:34 57.2 °F 56.4 °F 30.16 in Calm     97% 0.06 in 44 W/m2
08:39 57.3 °F 56.4 °F 30.16 in South 0.4 mph 4 mph 97% 0.00 in 37 W/m2
08:44 57.3 °F 56.5 °F 30.16 in South 0.1 mph 4 mph 97% 0.00 in 33 W/m2
08:49 57.3 °F 56.5 °F 30.16 in South 0.2 mph 4 mph 97% 0.00 in 16 W/m2
08:54 57.4 °F 56.5 °F 30.17 in Calm   4 mph 97% 0.00 in 12 W/m2
08:59 57.3 °F 56.5 °F 30.17 in South 0.1 mph 4 mph 97% 0.00 in 9 W/m2
09:04 57.3 °F 56.5 °F 30.17 in Calm   4 mph 97% 0.00 in 14 W/m2
09:09 57.3 °F 56.5 °F 30.17 in South 0.4 mph 5 mph 97% 0.00 in 18 W/m2
09:14 57.3 °F 56.5 °F 30.17 in South 0.2 mph 5 mph 97% 0.00 in 21 W/m2
09:19 57.3 °F 56.5 °F 30.17 in Calm   5 mph 97% 0.00 in 21 W/m2
09:24 57.3 °F 56.5 °F 30.17 in South 0.2 mph 5 mph 97% 0.00 in 14 W/m2
09:29 57.3 °F 56.5 °F 30.17 in Calm   5 mph 97% 0.00 in 14 W/m2
09:34 57.3 °F 56.4 °F 30.17 in South 0.1 mph 5 mph 97% 0.00 in 21 W/m2
09:39 57.3 °F 56.4 °F 30.17 in South 0.4 mph 3 mph 97% 0.00 in 25 W/m2
09:44 57.3 °F 56.5 °F 30.16 in Calm   3 mph 97% 0.00 in 25 W/m2
09:49 57.3 °F 56.5 °F 30.16 in Calm   3 mph 97% 0.00 in 44 W/m2
09:54 57.3 °F 56.5 °F 30.16 in South 0.5 mph 3 mph 97% 0.00 in 44 W/m2
09:59 57.4 °F 56.6 °F 30.16 in South 0.5 mph 4 mph 97% 0.00 in 44 W/m2
10:04 57.4 °F 56.6 °F 30.16 in Calm   4 mph 97% 0.00 in 47 W/m2
10:09 57.5 °F 56.7 °F 30.16 in Calm     97% 0.00 in 47 W/m2
10:14 57.5 °F 56.7 °F 30.16 in South 0.3 mph 4 mph 97% 0.00 in 49 W/m2
10:19 57.5 °F 56.7 °F 30.16 in South 0.6 mph 4 mph 97% 0.00 in 47 W/m2
10:24 57.5 °F 56.7 °F 30.15 in South 0.8 mph 5 mph 97% 0.00 in 42 W/m2
10:29 57.6 °F 56.7 °F 30.15 in South 0.7 mph 5 mph 97% 0.00 in 60 W/m2
10:34 57.6 °F 56.8 °F 30.15 in South 0.7 mph 5 mph 97% 0.00 in 72 W/m2
10:39 57.6 °F 56.8 °F 30.15 in South 0.2 mph 5 mph 97% 0.00 in 77 W/m2
10:44 57.7 °F 56.9 °F 30.14 in South 0.7 mph 5 mph 97% 0.00 in 79 W/m2
10:49 57.7 °F 56.9 °F 30.13 in South 0.4 mph 5 mph 97% 0.00 in 62 W/m2
10:54 57.8 °F 56.9 °F 30.14 in Calm   5 mph 97% 0.00 in 40 W/m2
10:59 57.7 °F 56.9 °F 30.14 in Calm   5 mph 97% 0.00 in 33 W/m2
11:04 57.7 °F 56.9 °F 30.13 in Calm   5 mph 97% 0.00 in 44 W/m2
11:09 57.7 °F 56.9 °F 30.13 in South 0.5 mph 4 mph 97% 0.00 in 44 W/m2
11:14 57.7 °F 56.9 °F 30.12 in South 0.1 mph 4 mph 97% 0.00 in 39 W/m2
11:19 57.7 °F 56.9 °F 30.12 in Calm   4 mph 97% 0.00 in 46 W/m2
11:24 57.7 °F 56.9 °F 30.13 in Calm   4 mph 97% 0.00 in 60 W/m2
11:29 57.8 °F 56.9 °F 30.13 in South 0.1 mph 4 mph 97% 0.00 in 67 W/m2
11:34 57.8 °F 57 °F 30.12 in Calm   4 mph 97% 0.00 in 58 W/m2
11:39 57.8 °F 57 °F 30.12 in Calm     97% 0.00 in 76 W/m2
11:44 57.9 °F 57 °F 30.11 in Calm     97% 0.00 in 79 W/m2
11:49 57.9 °F 57.1 °F 30.11 in Calm     97% 0.00 in 95 W/m2
11:54 58 °F 57.1 °F 30.11 in Calm   1 mph 97% 0.00 in 120 W/m2
11:59 58 °F 57.2 °F 30.10 in South 0.6 mph 5 mph 97% 0.00 in 127 W/m2
12:00 58 °F 57.2 °F 30.09 in Calm   5 mph 97% 0.00 in 123 W/m2
12:09 58.2 °F 57.3 °F 30.10 in South 0.2 mph 3 mph 97% 0.00 in 76 W/m2
12:14 58.2 °F 57.4 °F 30.10 in SSW 0.7 mph 6 mph 97% 0.00 in 67 W/m2
12:19 58.2 °F 57.4 °F 30.10 in Calm   6 mph 97% 0.00 in 65 W/m2
12:24 58.1 °F 57.3 °F 30.09 in SSW 0.1 mph 6 mph 97% 0.00 in 65 W/m2
12:29 58.1 °F 57.3 °F 30.09 in SSW 0.1 mph 6 mph 97% 0.00 in 70 W/m2
12:34 58.1 °F 57.3 °F 30.09 in SSW 0.1 mph 6 mph 97% 0.00 in 76 W/m2
12:39 58.1 °F 57.3 °F 30.09 in SSW 0.1 mph 2 mph 97% 0.00 in 60 W/m2
12:44 58.1 °F 57.3 °F 30.09 in SSW 0.2 mph 6 mph 97% 0.00 in 32 W/m2
12:49 58 °F 57.2 °F 30.09 in SSW 0.1 mph 6 mph 97% 0.00 in 33 W/m2
12:54 58 °F 57.2 °F 30.09 in Calm   6 mph 97% 0.00 in 40 W/m2
12:59 58 °F 57.1 °F 30.09 in SSW 0.2 mph 6 mph 97% 0.00 in 37 W/m2
13:04 58 °F 57.2 °F 30.08 in SSW 0.2 mph 6 mph 97% 0.00 in 44 W/m2
13:09 58 °F 57.2 °F 30.08 in SSW 0.5 mph 5 mph 97% 0.00 in 44 W/m2
13:14 58 °F 57.2 °F 30.08 in Calm   5 mph 97% 0.00 in 39 W/m2
13:19 58 °F 57.2 °F 30.08 in Calm   5 mph 97% 0.00 in 25 W/m2
13:24 58 °F 57.2 °F 30.08 in Calm   5 mph 97% 0.00 in 25 W/m2
13:29 58 °F 57.1 °F 30.08 in Calm   5 mph 96.8% 0.00 in 25 W/m2
13:34 58 °F 57.2 °F 30.08 in SSW 0.1 mph 5 mph 97% 0.00 in 19 W/m2
13:39 58 °F 57.2 °F 30.07 in Calm   2 mph 97% 0.00 in 19 W/m2
13:44 58 °F 57.2 °F 30.07 in SSW 0.1 mph 3 mph 97% 0.00 in 18 W/m2
13:49 58 °F 57 °F 30.07 in Calm   3 mph 96.5% 0.00 in 16 W/m2
13:54 58 °F 57.1 °F 30.07 in Calm   3 mph 96.8% 0.00 in 18 W/m2
13:59 58 °F 57.1 °F 30.07 in Calm   3 mph 96.7% 0.00 in 14 W/m2
14:04 58 °F 57.1 °F 30.07 in Calm   3 mph 96.9% 0.00 in 14 W/m2
14:09 58 °F 57 °F 30.08 in Calm     96.5% 0.00 in 11 W/m2
14:14 58 °F 57.1 °F 30.07 in Calm     96.8% 0.00 in 9 W/m2
14:19 58 °F 57 °F 30.07 in Calm     96.3% 0.00 in 9 W/m2
14:24 58 °F 56.9 °F 30.07 in Calm   1 mph 96% 0.00 in 14 W/m2
14:29 58 °F 56.8 °F 30.07 in SSW 0.2 mph 4 mph 96% 0.00 in 16 W/m2
14:34 57.9 °F 56.8 °F 30.07 in SSW 0.2 mph 4 mph 96% 0.00 in 21 W/m2
14:39 57.9 °F 56.8 °F 30.06 in SSW 0.1 mph 3 mph 96% 0.00 in 23 W/m2
14:44 57.9 °F 56.8 °F 30.06 in SSW 0.5 mph 4 mph 96% 0.00 in 21 W/m2
14:49 58 °F 56.9 °F 30.06 in SSW 0.1 mph 4 mph 96% 0.00 in 19 W/m2
14:54 58 °F 56.9 °F 30.06 in SSW 0.3 mph 4 mph 96% 0.00 in 16 W/m2
14:59 58 °F 56.9 °F 30.06 in SSW 0.1 mph 4 mph 96% 0.00 in 18 W/m2
15:04 57.9 °F 56.8 °F 30.06 in SSW 1.2 mph 5 mph 96% 0.00 in 18 W/m2
15:09 57.9 °F 56.8 °F 30.05 in Calm   5 mph 96% 0.00 in 18 W/m2
15:14 57.9 °F 56.8 °F 30.05 in SSW 0.2 mph 5 mph 96% 0.00 in 18 W/m2
15:19 57.9 °F 56.8 °F 30.05 in Calm   5 mph 96% 0.00 in 16 W/m2
15:24 57.8 °F 56.7 °F 30.05 in Calm   5 mph 96% 0.00 in 14 W/m2
15:29 57.8 °F 56.7 °F 30.05 in Calm   5 mph 96% 0.00 in 16 W/m2
15:34 57.8 °F 56.7 °F 30.04 in Calm   5 mph 96% 0.00 in 18 W/m2
15:39 57.8 °F 56.7 °F 30.04 in Calm   1 mph 96% 0.00 in 16 W/m2
15:44 57.8 °F 56.7 °F 30.03 in Calm   1 mph 96% 0.00 in 16 W/m2
15:49 57.8 °F 56.7 °F 30.03 in Calm   1 mph 96% 0.00 in 14 W/m2
15:54 57.8 °F 56.7 °F 30.03 in Calm   1 mph 96% 0.00 in 11 W/m2
15:59 57.8 °F 56.7 °F 30.04 in Calm   1 mph 96% 0.00 in 7 W/m2
16:00 57.8 °F 56.7 °F 30.04 in Calm   1 mph 96% 0.00 in 0 W/m2
16:09 57.8 °F 56.7 °F 30.04 in Calm     96% 0.00 in 0 W/m2
16:14 57.8 °F 56.7 °F 30.03 in SSW 0.1 mph 2 mph 96% 0.00 in 0 W/m2
16:19 57.8 °F 56.7 °F 30.03 in SSW 0.1 mph 2 mph 96.2% 0.00 in 0 W/m2
16:24 57.8 °F 57 °F 30.04 in Calm   2 mph 97% 0.00 in 0 W/m2
16:29 57.7 °F 56.9 °F 30.04 in SSW 0.5 mph 4 mph 97% 0.00 in 0 W/m2
16:34 57.7 °F 56.9 °F 30.04 in Calm   4 mph 97% 0.00 in 0 W/m2
16:35 57.7 °F 56.9 °F 30.04 in Calm     97% 0.00 in 0 W/m2
17:00 57.7 °F 56.9 °F 30.02 in Calm   3 mph 97% 0.00 in 0 W/m2
17:30 57.6 °F 56.8 °F 30.01 in Calm   4 mph 97% 0.00 in 0 W/m2
18:00 57.5 °F 56.7 °F 30.01 in Calm     97% 0.00 in 0 W/m2
18:30 57.3 °F 56.5 °F 30.01 in Calm   1 mph 97% 0.00 in 0 W/m2
19:30 57.4 °F 56.6 °F 30.00 in Calm   4 mph 97% 0.00 in 0 W/m2
20:04 57.6 °F 56.7 °F 30.00 in Calm   4 mph 97% 0.00 in 0 W/m2
20:09 57.6 °F 56.8 °F 30.01 in SSW 0.3 mph 7 mph 97% 0.00 in 0 W/m2
20:14 57.6 °F 56.8 °F 30.01 in Calm   7 mph 97% 0.00 in 0 W/m2
20:19 57.6 °F 56.8 °F 30.01 in Calm   7 mph 97% 0.00 in 0 W/m2
20:24 57.6 °F 56.8 °F 30.01 in Calm   7 mph 97% 0.00 in 0 W/m2
20:29 57.6 °F 56.8 °F 30.01 in Calm   7 mph 97% 0.00 in 0 W/m2
20:34 57.6 °F 56.8 °F 30.01 in Calm   7 mph 97% 0.00 in 0 W/m2
20:39 57.6 °F 56.8 °F 30.01 in Calm   1 mph 97% 0.00 in 0 W/m2
20:44 57.7 °F 56.8 °F 30.01 in Calm   1 mph 97% 0.00 in 0 W/m2
20:49 57.7 °F 56.9 °F 30.02 in SSW 0.3 mph 4 mph 97% 0.00 in 0 W/m2
20:54 57.7 °F 56.9 °F 30.01 in Calm   4 mph 97% 0.00 in 0 W/m2
20:59 57.7 °F 56.8 °F 30.01 in Calm   4 mph 97% 0.00 in 0 W/m2
21:04 57.7 °F 56.8 °F 30.01 in Calm   4 mph 97% 0.00 in 0 W/m2
21:09 57.6 °F 56.8 °F 30.01 in SSW 0.1 mph 3 mph 97% 0.00 in 0 W/m2
21:14 57.6 °F 56.8 °F 30.01 in Calm   3 mph 97% 0.00 in 0 W/m2
21:19 57.6 °F 56.8 °F 30.01 in Calm   3 mph 97% 0.00 in 0 W/m2
21:24 57.6 °F 56.7 °F 30.01 in Calm   3 mph 97% 0.00 in 0 W/m2
21:29 57.5 °F 56.7 °F 30.01 in Calm   3 mph 97% 0.00 in 0 W/m2
21:34 57.5 °F 56.6 °F 30.01 in Calm   3 mph 97% 0.00 in 0 W/m2
21:39 57.4 °F 56.6 °F 30.02 in Calm     97% 0.00 in 0 W/m2
21:44 57.4 °F 56.6 °F 30.02 in Calm     97% 0.00 in 0 W/m2
21:49 57.4 °F 56.6 °F 30.01 in Calm     97% 0.00 in 0 W/m2
21:54 57.4 °F 56.6 °F 30.02 in Calm     97% 0.00 in 0 W/m2
21:59 57.6 °F 56.7 °F 30.02 in Calm     97% 0.00 in 0 W/m2
22:04 57.8 °F 56.9 °F 30.02 in Calm     97% 0.00 in 0 W/m2
22:09 57.9 °F 57.1 °F 30.02 in Calm     97% 0.00 in 0 W/m2
22:14 58 °F 57.1 °F 30.02 in Calm     97% 0.00 in 0 W/m2
22:19 57.9 °F 57.1 °F 30.02 in SSW 0.7 mph 4 mph 97% 0.00 in 0 W/m2
22:24 57.8 °F 56.9 °F 30.02 in SSW 0.1 mph 4 mph 97% 0.00 in 0 W/m2
22:29 57.6 °F 56.8 °F 30.02 in Calm   4 mph 97% 0.00 in 0 W/m2
22:34 57.6 °F 56.8 °F 30.02 in SSW 0.7 mph 5 mph 97% 0.00 in 0 W/m2
22:39 57.5 °F 56.7 °F 30.02 in SW 1.1 mph 9 mph 97% 0.00 in 0 W/m2
22:44 57.4 °F 56.5 °F 30.03 in West 3.3 mph 11 mph 97% 0.00 in 0 W/m2
22:49 57.2 °F 56.4 °F 30.03 in WNW 1.5 mph 11 mph 97% 0.00 in 0 W/m2
22:54 57.1 °F 56.2 °F 30.03 in WNW 3.4 mph 11 mph 96.7% 0.00 in 0 W/m2
22:59 56.8 °F 55.7 °F 30.03 in NW 5.8 mph 12 mph 96.2% 0.00 in 0 W/m2
23:04 56.3 °F 55.1 °F 30.03 in WNW 10.6 mph 13 mph 96% 0.00 in 0 W/m2
23:09 56.1 °F 54.8 °F 30.04 in WNW 2.9 mph 13 mph 95.5% 0.00 in 0 W/m2
23:14 55.9 °F 54.5 °F 30.04 in WNW 5.2 mph 14 mph 94.8% 0.00 in 0 W/m2
23:19 55.8 °F 54 °F 30.04 in WNW 8.6 mph 17 mph 93.6% 0.00 in 0 W/m2
23:24 55.8 °F 53.6 °F 30.04 in WNW 4.2 mph 17 mph 92.4% 0.00 in 0 W/m2
23:29 55.8 °F 53.5 °F 30.04 in WNW 3.7 mph 17 mph 91.9% 0.00 in 0 W/m2
23:34 55.7 °F 53 °F 30.04 in NW 8.1 mph 17 mph 90.6% 0.00 in 0 W/m2
23:39 55.7 °F 52.5 °F 30.04 in WNW 5.5 mph 17 mph 89.2% 0.00 in 0 W/m2
23:44 55.6 °F 52.1 °F 30.04 in WNW 1.1 mph 17 mph 88.1% 0.00 in 0 W/m2
23:49 55.4 °F 51.8 °F 30.04 in WNW 2.3 mph 17 mph 87.8% 0.00 in 0 W/m2
23:54 55.2 °F 51.4 °F 30.04 in NW 2.3 mph 17 mph 87% 0.00 in 0 W/m2
23:59 54.9 °F 51.1 °F 30.03 in NW 1.6 mph 17 mph 87% 0.00 in 0 W/m2
Hartford County Weather
Compliments of Weather Underground - 4 mb